sensor_id;sensor_type;location;lat;lon;timestamp;temperature;humidity
14946;DHT22;7567;50.916;6.900;2022-11-15T00:00:07;9.70;99.90
14946;DHT22;7567;50.916;6.900;2022-11-15T00:02:33;9.70;99.90
14946;DHT22;7567;50.916;6.900;2022-11-15T00:04:59;9.70;99.90
14946;DHT22;7567;50.916;6.900;2022-11-15T00:07:24;9.70;99.90
14946;DHT22;7567;50.916;6.900;2022-11-15T00:09:50;9.70;99.90
14946;DHT22;7567;50.916;6.900;2022-11-15T00:12:16;9.70;99.90
14946;DHT22;7567;50.916;6.900;2022-11-15T00:14:41;9.60;99.90
14946;DHT22;7567;50.916;6.900;2022-11-15T00:17:07;9.60;99.90
14946;DHT22;7567;50.916;6.900;2022-11-15T00:19:33;9.70;99.90
14946;DHT22;7567;50.916;6.900;2022-11-15T00:21:59;9.70;99.90
14946;DHT22;7567;50.916;6.900;2022-11-15T00:24:24;9.70;99.90
14946;DHT22;7567;50.916;6.900;2022-11-15T00:26:50;9.60;99.90
14946;DHT22;7567;50.916;6.900;2022-11-15T00:29:16;9.60;99.90
14946;DHT22;7567;50.916;6.900;2022-11-15T00:31:41;9.60;99.90
14946;DHT22;7567;50.916;6.900;2022-11-15T00:34:08;9.70;99.90
14946;DHT22;7567;50.916;6.900;2022-11-15T00:36:34;9.60;99.90
14946;DHT22;7567;50.916;6.900;2022-11-15T00:39:00;9.60;99.90
14946;DHT22;7567;50.916;6.900;2022-11-15T00:41:26;9.60;99.90
14946;DHT22;7567;50.916;6.900;2022-11-15T00:43:52;9.70;99.90
14946;DHT22;7567;50.916;6.900;2022-11-15T00:46:17;9.70;99.90
14946;DHT22;7567;50.916;6.900;2022-11-15T00:48:43;9.70;99.90
14946;DHT22;7567;50.916;6.900;2022-11-15T00:51:09;9.70;99.90
14946;DHT22;7567;50.916;6.900;2022-11-15T00:53:35;9.70;99.90
14946;DHT22;7567;50.916;6.900;2022-11-15T00:56:00;9.70;99.90
14946;DHT22;7567;50.916;6.900;2022-11-15T00:58:26;9.70;99.90
14946;DHT22;7567;50.916;6.900;2022-11-15T01:00:52;9.70;99.90
14946;DHT22;7567;50.916;6.900;2022-11-15T01:03:17;9.70;99.90
14946;DHT22;7567;50.916;6.900;2022-11-15T01:05:43;9.80;99.90
14946;DHT22;7567;50.916;6.900;2022-11-15T01:08:13;9.70;99.90
14946;DHT22;7567;50.916;6.900;2022-11-15T01:10:39;9.70;99.90
14946;DHT22;7567;50.916;6.900;2022-11-15T01:13:05;9.70;99.90
14946;DHT22;7567;50.916;6.900;2022-11-15T01:15:31;9.70;99.90
14946;DHT22;7567;50.916;6.900;2022-11-15T01:17:56;9.60;99.90
14946;DHT22;7567;50.916;6.900;2022-11-15T01:20:22;9.60;99.90
14946;DHT22;7567;50.916;6.900;2022-11-15T01:22:48;9.50;99.90
14946;DHT22;7567;50.916;6.900;2022-11-15T01:25:13;9.60;99.90
14946;DHT22;7567;50.916;6.900;2022-11-15T01:27:39;9.50;99.90
14946;DHT22;7567;50.916;6.900;2022-11-15T01:30:06;9.50;99.90
14946;DHT22;7567;50.916;6.900;2022-11-15T01:32:31;9.50;99.90
14946;DHT22;7567;50.916;6.900;2022-11-15T01:34:57;9.60;99.90
14946;DHT22;7567;50.916;6.900;2022-11-15T01:37:23;9.70;99.90
14946;DHT22;7567;50.916;6.900;2022-11-15T01:39:49;9.70;99.90
14946;DHT22;7567;50.916;6.900;2022-11-15T01:42:15;9.70;99.90
14946;DHT22;7567;50.916;6.900;2022-11-15T01:44:45;9.70;99.90
14946;DHT22;7567;50.916;6.900;2022-11-15T01:47:31;9.70;99.90
14946;DHT22;7567;50.916;6.900;2022-11-15T01:50:10;9.80;99.90
14946;DHT22;7567;50.916;6.900;2022-11-15T01:52:36;9.90;99.90
14946;DHT22;7567;50.916;6.900;2022-11-15T01:55:09;9.90;99.90
14946;DHT22;7567;50.916;6.900;2022-11-15T01:57:37;9.90;99.90
14946;DHT22;7567;50.916;6.900;2022-11-15T02:00:04;9.90;99.90
14946;DHT22;7567;50.916;6.900;2022-11-15T02:02:30;9.90;99.90
14946;DHT22;7567;50.916;6.900;2022-11-15T02:04:56;9.90;99.90
14946;DHT22;7567;50.916;6.900;2022-11-15T02:07:22;9.90;99.90
14946;DHT22;7567;50.916;6.900;2022-11-15T02:09:49;9.90;99.90
14946;DHT22;7567;50.916;6.900;2022-11-15T02:12:19;9.90;99.90
14946;DHT22;7567;50.916;6.900;2022-11-15T02:14:51;9.90;99.90
14946;DHT22;7567;50.916;6.900;2022-11-15T02:31:04;10.00;99.90
14946;DHT22;7567;50.916;6.900;2022-11-15T02:36:05;10.20;99.90
14946;DHT22;7567;50.916;6.900;2022-11-15T02:38:43;10.30;99.90
14946;DHT22;7567;50.916;6.900;2022-11-15T02:41:20;10.20;99.90
14946;DHT22;7567;50.916;6.900;2022-11-15T02:43:56;10.30;99.90
14946;DHT22;7567;50.916;6.900;2022-11-15T02:46:41;10.40;99.90
14946;DHT22;7567;50.916;6.900;2022-11-15T02:49:32;10.40;99.90
14946;DHT22;7567;50.916;6.900;2022-11-15T02:51:58;10.40;99.90
14946;DHT22;7567;50.916;6.900;2022-11-15T02:54:26;10.40;99.90
14946;DHT22;7567;50.916;6.900;2022-11-15T02:56:58;10.50;99.90
14946;DHT22;7567;50.916;6.900;2022-11-15T03:08:14;10.60;99.90
14946;DHT22;7567;50.916;6.900;2022-11-15T03:13:25;10.90;99.90
14946;DHT22;7567;50.916;6.900;2022-11-15T03:18:37;11.20;99.90
14946;DHT22;7567;50.916;6.900;2022-11-15T03:21:07;11.20;99.90
14946;DHT22;7567;50.916;6.900;2022-11-15T03:23:34;11.20;99.90
14946;DHT22;7567;50.916;6.900;2022-11-15T03:26:02;11.10;99.90
14946;DHT22;7567;50.916;6.900;2022-11-15T03:28:47;11.10;99.90
14946;DHT22;7567;50.916;6.900;2022-11-15T03:31:15;11.10;99.90
14946;DHT22;7567;50.916;6.900;2022-11-15T03:34:02;11.20;99.90
14946;DHT22;7567;50.916;6.900;2022-11-15T03:36:31;11.20;99.90
14946;DHT22;7567;50.916;6.900;2022-11-15T03:39:02;11.30;99.90
14946;DHT22;7567;50.916;6.900;2022-11-15T03:41:59;11.20;99.90
14946;DHT22;7567;50.916;6.900;2022-11-15T03:47:16;11.30;99.90
14946;DHT22;7567;50.916;6.900;2022-11-15T03:49:49;11.20;99.90
14946;DHT22;7567;50.916;6.900;2022-11-15T03:52:21;11.20;99.90
14946;DHT22;7567;50.916;6.900;2022-11-15T03:54:52;11.20;99.90
14946;DHT22;7567;50.916;6.900;2022-11-15T03:57:18;11.30;99.90
14946;DHT22;7567;50.916;6.900;2022-11-15T03:59:44;11.30;99.90
14946;DHT22;7567;50.916;6.900;2022-11-15T04:02:10;11.30;99.90
14946;DHT22;7567;50.916;6.900;2022-11-15T04:04:35;11.20;99.90
14946;DHT22;7567;50.916;6.900;2022-11-15T04:07:01;11.20;99.90
14946;DHT22;7567;50.916;6.900;2022-11-15T04:09:27;11.20;99.90
14946;DHT22;7567;50.916;6.900;2022-11-15T04:11:53;11.20;99.90
14946;DHT22;7567;50.916;6.900;2022-11-15T04:14:18;11.20;99.90
14946;DHT22;7567;50.916;6.900;2022-11-15T04:16:44;11.20;99.90
14946;DHT22;7567;50.916;6.900;2022-11-15T04:19:10;11.10;99.90
14946;DHT22;7567;50.916;6.900;2022-11-15T04:21:54;11.10;99.90
14946;DHT22;7567;50.916;6.900;2022-11-15T04:24:38;11.10;99.90
14946;DHT22;7567;50.916;6.900;2022-11-15T04:27:04;11.00;99.90
14946;DHT22;7567;50.916;6.900;2022-11-15T04:29:30;11.00;99.90
14946;DHT22;7567;50.916;6.900;2022-11-15T04:32:03;11.00;99.90
14946;DHT22;7567;50.916;6.900;2022-11-15T04:34:30;11.00;99.90
14946;DHT22;7567;50.916;6.900;2022-11-15T04:36:55;11.00;99.90
14946;DHT22;7567;50.916;6.900;2022-11-15T04:39:41;11.10;99.90
14946;DHT22;7567;50.916;6.900;2022-11-15T04:42:08;11.00;99.90
14946;DHT22;7567;50.916;6.900;2022-11-15T04:44:34;11.00;99.90
14946;DHT22;7567;50.916;6.900;2022-11-15T04:47:00;11.00;99.90
14946;DHT22;7567;50.916;6.900;2022-11-15T04:49:26;11.10;99.90
14946;DHT22;7567;50.916;6.900;2022-11-15T04:51:52;11.00;99.90
14946;DHT22;7567;50.916;6.900;2022-11-15T04:54:17;11.10;99.90
14946;DHT22;7567;50.916;6.900;2022-11-15T04:56:43;11.10;99.90
14946;DHT22;7567;50.916;6.900;2022-11-15T04:59:09;11.10;99.90
14946;DHT22;7567;50.916;6.900;2022-11-15T05:01:35;11.20;99.90
14946;DHT22;7567;50.916;6.900;2022-11-15T05:04:00;11.20;99.90
14946;DHT22;7567;50.916;6.900;2022-11-15T05:06:46;11.20;99.90
14946;DHT22;7567;50.916;6.900;2022-11-15T05:09:13;11.20;99.90
14946;DHT22;7567;50.916;6.900;2022-11-15T05:11:39;11.10;99.90
14946;DHT22;7567;50.916;6.900;2022-11-15T05:14:05;11.10;99.90
14946;DHT22;7567;50.916;6.900;2022-11-15T05:16:31;11.00;99.90
14946;DHT22;7567;50.916;6.900;2022-11-15T05:18:56;11.00;99.90
14946;DHT22;7567;50.916;6.900;2022-11-15T05:21:22;10.90;99.90
14946;DHT22;7567;50.916;6.900;2022-11-15T05:23:48;10.80;99.90
14946;DHT22;7567;50.916;6.900;2022-11-15T05:26:17;10.70;99.90
14946;DHT22;7567;50.916;6.900;2022-11-15T05:28:43;10.60;99.90
14946;DHT22;7567;50.916;6.900;2022-11-15T05:31:14;10.50;99.90
14946;DHT22;7567;50.916;6.900;2022-11-15T05:33:41;10.50;99.90
14946;DHT22;7567;50.916;6.900;2022-11-15T05:36:46;10.40;99.90
14946;DHT22;7567;50.916;6.900;2022-11-15T05:39:12;10.40;99.90
14946;DHT22;7567;50.916;6.900;2022-11-15T05:41:46;10.40;99.90
14946;DHT22;7567;50.916;6.900;2022-11-15T05:44:16;10.40;99.90
14946;DHT22;7567;50.916;6.900;2022-11-15T05:46:43;10.40;99.90
14946;DHT22;7567;50.916;6.900;2022-11-15T05:49:12;10.40;99.90
14946;DHT22;7567;50.916;6.900;2022-11-15T05:51:40;10.40;99.90
14946;DHT22;7567;50.916;6.900;2022-11-15T05:54:07;10.50;99.90
14946;DHT22;7567;50.916;6.900;2022-11-15T05:56:33;10.40;99.90
14946;DHT22;7567;50.916;6.900;2022-11-15T05:58:59;10.30;99.90
14946;DHT22;7567;50.916;6.900;2022-11-15T06:01:25;10.30;99.90
14946;DHT22;7567;50.916;6.900;2022-11-15T06:03:52;10.20;99.90
14946;DHT22;7567;50.916;6.900;2022-11-15T06:06:17;10.20;99.90
14946;DHT22;7567;50.916;6.900;2022-11-15T06:08:43;10.10;99.90
14946;DHT22;7567;50.916;6.900;2022-11-15T06:11:09;9.90;99.90
14946;DHT22;7567;50.916;6.900;2022-11-15T06:13:35;9.90;99.90
14946;DHT22;7567;50.916;6.900;2022-11-15T06:16:01;9.80;99.90
14946;DHT22;7567;50.916;6.900;2022-11-15T06:18:27;9.70;99.90
14946;DHT22;7567;50.916;6.900;2022-11-15T06:20:52;9.70;99.90
14946;DHT22;7567;50.916;6.900;2022-11-15T06:23:18;9.70;99.90
14946;DHT22;7567;50.916;6.900;2022-11-15T06:25:44;9.60;99.90
14946;DHT22;7567;50.916;6.900;2022-11-15T06:28:09;9.60;99.90
14946;DHT22;7567;50.916;6.900;2022-11-15T06:30:35;9.60;99.90
14946;DHT22;7567;50.916;6.900;2022-11-15T06:33:02;9.90;99.90
14946;DHT22;7567;50.916;6.900;2022-11-15T06:35:29;9.90;99.90
14946;DHT22;7567;50.916;6.900;2022-11-15T06:37:55;9.80;99.90
14946;DHT22;7567;50.916;6.900;2022-11-15T06:40:21;9.70;99.90
14946;DHT22;7567;50.916;6.900;2022-11-15T06:42:47;9.70;99.90
14946;DHT22;7567;50.916;6.900;2022-11-15T06:45:13;9.70;99.90
14946;DHT22;7567;50.916;6.900;2022-11-15T06:47:47;9.90;99.90
14946;DHT22;7567;50.916;6.900;2022-11-15T06:50:14;10.00;99.90
14946;DHT22;7567;50.916;6.900;2022-11-15T06:52:39;9.90;99.90
14946;DHT22;7567;50.916;6.900;2022-11-15T06:55:05;10.00;99.90
14946;DHT22;7567;50.916;6.900;2022-11-15T06:57:31;10.10;99.90
14946;DHT22;7567;50.916;6.900;2022-11-15T06:59:57;9.90;99.90
14946;DHT22;7567;50.916;6.900;2022-11-15T07:02:23;9.70;99.90
14946;DHT22;7567;50.916;6.900;2022-11-15T07:04:49;9.70;99.90
14946;DHT22;7567;50.916;6.900;2022-11-15T07:07:14;9.60;99.90
14946;DHT22;7567;50.916;6.900;2022-11-15T07:09:41;9.50;99.90
14946;DHT22;7567;50.916;6.900;2022-11-15T07:12:06;9.50;99.90
14946;DHT22;7567;50.916;6.900;2022-11-15T07:14:32;9.70;99.90
14946;DHT22;7567;50.916;6.900;2022-11-15T07:16:58;9.60;99.90
14946;DHT22;7567;50.916;6.900;2022-11-15T07:19:23;9.90;99.90
14946;DHT22;7567;50.916;6.900;2022-11-15T07:21:49;9.90;99.90
14946;DHT22;7567;50.916;6.900;2022-11-15T07:24:15;9.80;99.90
14946;DHT22;7567;50.916;6.900;2022-11-15T07:26:41;9.90;99.90
14946;DHT22;7567;50.916;6.900;2022-11-15T07:29:06;9.90;99.90
14946;DHT22;7567;50.916;6.900;2022-11-15T07:31:32;9.80;99.90
14946;DHT22;7567;50.916;6.900;2022-11-15T07:33:58;9.70;99.90
14946;DHT22;7567;50.916;6.900;2022-11-15T07:36:23;9.80;99.90
14946;DHT22;7567;50.916;6.900;2022-11-15T07:38:49;10.00;99.90
14946;DHT22;7567;50.916;6.900;2022-11-15T07:41:15;10.00;99.90
14946;DHT22;7567;50.916;6.900;2022-11-15T07:43:40;10.10;99.90
14946;DHT22;7567;50.916;6.900;2022-11-15T07:46:08;10.20;99.90
14946;DHT22;7567;50.916;6.900;2022-11-15T07:48:38;10.50;99.90
14946;DHT22;7567;50.916;6.900;2022-11-15T07:51:06;10.60;99.90
14946;DHT22;7567;50.916;6.900;2022-11-15T07:53:32;10.70;99.90
14946;DHT22;7567;50.916;6.900;2022-11-15T07:55:58;10.70;99.90
14946;DHT22;7567;50.916;6.900;2022-11-15T07:58:23;10.80;99.90
14946;DHT22;7567;50.916;6.900;2022-11-15T08:00:49;10.80;99.90
14946;DHT22;7567;50.916;6.900;2022-11-15T08:03:16;10.80;99.90
14946;DHT22;7567;50.916;6.900;2022-11-15T08:05:43;10.80;99.90
14946;DHT22;7567;50.916;6.900;2022-11-15T08:08:10;10.80;99.90
14946;DHT22;7567;50.916;6.900;2022-11-15T08:10:36;10.90;99.90
14946;DHT22;7567;50.916;6.900;2022-11-15T08:13:08;11.00;99.90
14946;DHT22;7567;50.916;6.900;2022-11-15T08:15:34;11.00;99.90
14946;DHT22;7567;50.916;6.900;2022-11-15T08:18:03;11.00;99.90
14946;DHT22;7567;50.916;6.900;2022-11-15T08:20:30;11.00;99.90
14946;DHT22;7567;50.916;6.900;2022-11-15T08:22:57;11.10;99.90
14946;DHT22;7567;50.916;6.900;2022-11-15T08:25:24;11.00;99.90
14946;DHT22;7567;50.916;6.900;2022-11-15T08:27:56;10.90;99.90
14946;DHT22;7567;50.916;6.900;2022-11-15T08:30:22;10.90;99.90
14946;DHT22;7567;50.916;6.900;2022-11-15T08:32:50;10.90;99.90
14946;DHT22;7567;50.916;6.900;2022-11-15T08:35:16;10.90;99.90
14946;DHT22;7567;50.916;6.900;2022-11-15T08:37:42;10.90;99.90
14946;DHT22;7567;50.916;6.900;2022-11-15T08:40:08;11.10;99.90
14946;DHT22;7567;50.916;6.900;2022-11-15T08:42:35;11.20;99.90
14946;DHT22;7567;50.916;6.900;2022-11-15T08:45:02;11.20;99.90
14946;DHT22;7567;50.916;6.900;2022-11-15T08:47:28;11.30;99.90
14946;DHT22;7567;50.916;6.900;2022-11-15T08:49:55;11.30;99.90
14946;DHT22;7567;50.916;6.900;2022-11-15T08:52:21;11.40;99.90
14946;DHT22;7567;50.916;6.900;2022-11-15T08:54:47;11.50;99.90
14946;DHT22;7567;50.916;6.900;2022-11-15T08:57:13;11.50;99.90
14946;DHT22;7567;50.916;6.900;2022-11-15T08:59:38;11.60;99.90
14946;DHT22;7567;50.916;6.900;2022-11-15T09:02:05;11.60;99.90
14946;DHT22;7567;50.916;6.900;2022-11-15T09:04:31;11.70;99.90
14946;DHT22;7567;50.916;6.900;2022-11-15T09:06:56;11.80;99.90
14946;DHT22;7567;50.916;6.900;2022-11-15T09:09:22;11.90;99.90
14946;DHT22;7567;50.916;6.900;2022-11-15T09:11:48;12.00;99.90
14946;DHT22;7567;50.916;6.900;2022-11-15T09:14:15;12.10;99.90
14946;DHT22;7567;50.916;6.900;2022-11-15T09:16:40;12.20;99.90
14946;DHT22;7567;50.916;6.900;2022-11-15T09:19:06;12.40;99.90
14946;DHT22;7567;50.916;6.900;2022-11-15T09:21:32;12.50;99.90
14946;DHT22;7567;50.916;6.900;2022-11-15T09:23:58;12.80;99.90
14946;DHT22;7567;50.916;6.900;2022-11-15T09:26:24;12.90;99.90
14946;DHT22;7567;50.916;6.900;2022-11-15T09:28:50;12.90;99.90
14946;DHT22;7567;50.916;6.900;2022-11-15T09:31:16;13.00;99.90
14946;DHT22;7567;50.916;6.900;2022-11-15T09:33:45;13.00;99.90
14946;DHT22;7567;50.916;6.900;2022-11-15T09:36:11;12.90;99.90
14946;DHT22;7567;50.916;6.900;2022-11-15T09:38:38;13.00;99.90
14946;DHT22;7567;50.916;6.900;2022-11-15T09:49:17;13.30;99.90
14946;DHT22;7567;50.916;6.900;2022-11-15T09:51:47;13.40;99.90
14946;DHT22;7567;50.916;6.900;2022-11-15T09:54:36;13.40;99.90
14946;DHT22;7567;50.916;6.900;2022-11-15T09:57:17;13.40;99.90
14946;DHT22;7567;50.916;6.900;2022-11-15T10:05:16;13.90;99.90
14946;DHT22;7567;50.916;6.900;2022-11-15T10:10:47;14.00;99.90
14946;DHT22;7567;50.916;6.900;2022-11-15T10:13:22;14.10;99.90
14946;DHT22;7567;50.916;6.900;2022-11-15T10:15:50;14.30;99.90
14946;DHT22;7567;50.916;6.900;2022-11-15T10:18:35;14.30;99.90
14946;DHT22;7567;50.916;6.900;2022-11-15T10:21:17;14.20;99.90
14946;DHT22;7567;50.916;6.900;2022-11-15T10:23:43;14.50;99.90
14946;DHT22;7567;50.916;6.900;2022-11-15T10:26:13;14.60;99.90
14946;DHT22;7567;50.916;6.900;2022-11-15T10:28:40;14.70;99.90
14946;DHT22;7567;50.916;6.900;2022-11-15T10:31:23;14.80;99.90
14946;DHT22;7567;50.916;6.900;2022-11-15T10:33:49;14.60;99.90
14946;DHT22;7567;50.916;6.900;2022-11-15T10:36:23;14.60;99.90
14946;DHT22;7567;50.916;6.900;2022-11-15T10:38:54;14.70;99.90
14946;DHT22;7567;50.916;6.900;2022-11-15T10:44:17;14.90;99.90
14946;DHT22;7567;50.916;6.900;2022-11-15T10:49:22;15.20;99.90
14946;DHT22;7567;50.916;6.900;2022-11-15T10:51:56;15.10;99.90
14946;DHT22;7567;50.916;6.900;2022-11-15T10:54:27;15.00;99.90
14946;DHT22;7567;50.916;6.900;2022-11-15T10:56:59;15.10;99.90
14946;DHT22;7567;50.916;6.900;2022-11-15T10:59:29;15.00;99.90
14946;DHT22;7567;50.916;6.900;2022-11-15T11:01:56;15.10;99.90
14946;DHT22;7567;50.916;6.900;2022-11-15T11:04:22;15.10;99.90
14946;DHT22;7567;50.916;6.900;2022-11-15T11:06:59;15.20;99.90
14946;DHT22;7567;50.916;6.900;2022-11-15T11:09:36;15.20;99.90
14946;DHT22;7567;50.916;6.900;2022-11-15T11:12:04;15.40;99.90
14946;DHT22;7567;50.916;6.900;2022-11-15T11:14:33;15.40;99.90
14946;DHT22;7567;50.916;6.900;2022-11-15T11:22:52;16.00;99.90
14946;DHT22;7567;50.916;6.900;2022-11-15T11:25:38;16.00;99.90
14946;DHT22;7567;50.916;6.900;2022-11-15T11:47:40;16.20;99.90
14946;DHT22;7567;50.916;6.900;2022-11-15T11:50:18;16.30;99.90
14946;DHT22;7567;50.916;6.900;2022-11-15T11:53:14;16.20;99.90
14946;DHT22;7567;50.916;6.900;2022-11-15T11:55:50;16.30;99.90
14946;DHT22;7567;50.916;6.900;2022-11-15T11:58:44;16.40;99.90
14946;DHT22;7567;50.916;6.900;2022-11-15T12:01:14;16.90;99.90
14946;DHT22;7567;50.916;6.900;2022-11-15T12:03:45;16.70;99.90
14946;DHT22;7567;50.916;6.900;2022-11-15T12:06:33;16.50;99.90
14946;DHT22;7567;50.916;6.900;2022-11-15T12:09:23;16.10;99.90
14946;DHT22;7567;50.916;6.900;2022-11-15T12:14:55;16.00;99.90
14946;DHT22;7567;50.916;6.900;2022-11-15T12:17:24;15.90;99.90
14946;DHT22;7567;50.916;6.900;2022-11-15T12:19:52;15.60;99.90
14946;DHT22;7567;50.916;6.900;2022-11-15T12:27:49;16.60;99.90
14946;DHT22;7567;50.916;6.900;2022-11-15T12:30:18;16.60;99.90
14946;DHT22;7567;50.916;6.900;2022-11-15T12:33:01;16.40;99.90
14946;DHT22;7567;50.916;6.900;2022-11-15T12:35:32;15.90;99.90
14946;DHT22;7567;50.916;6.900;2022-11-15T12:37:59;15.60;99.90
14946;DHT22;7567;50.916;6.900;2022-11-15T12:40:33;15.50;99.90
14946;DHT22;7567;50.916;6.900;2022-11-15T12:45:41;15.40;99.90
14946;DHT22;7567;50.916;6.900;2022-11-15T13:01:08;16.00;99.90
14946;DHT22;7567;50.916;6.900;2022-11-15T13:03:34;15.90;99.90
14946;DHT22;7567;50.916;6.900;2022-11-15T13:06:02;15.50;99.90
14946;DHT22;7567;50.916;6.900;2022-11-15T13:08:43;15.50;99.90
14946;DHT22;7567;50.916;6.900;2022-11-15T13:11:47;15.40;99.90
14946;DHT22;7567;50.916;6.900;2022-11-15T13:14:48;15.70;99.90
14946;DHT22;7567;50.916;6.900;2022-11-15T13:17:35;16.30;99.90
14946;DHT22;7567;50.916;6.900;2022-11-15T13:27:57;15.60;99.90
14946;DHT22;7567;50.916;6.900;2022-11-15T13:30:26;15.30;99.90
14946;DHT22;7567;50.916;6.900;2022-11-15T13:32:52;15.20;99.90
14946;DHT22;7567;50.916;6.900;2022-11-15T13:35:29;15.10;99.90
14946;DHT22;7567;50.916;6.900;2022-11-15T13:37:57;15.10;99.90
14946;DHT22;7567;50.916;6.900;2022-11-15T13:40:33;15.10;99.90
14946;DHT22;7567;50.916;6.900;2022-11-15T13:43:00;14.90;99.90
14946;DHT22;7567;50.916;6.900;2022-11-15T13:45:39;14.90;99.90
14946;DHT22;7567;50.916;6.900;2022-11-15T13:48:05;14.80;99.90
14946;DHT22;7567;50.916;6.900;2022-11-15T13:50:36;14.70;99.90
14946;DHT22;7567;50.916;6.900;2022-11-15T13:53:04;14.70;99.90
14946;DHT22;7567;50.916;6.900;2022-11-15T13:55:31;14.70;99.90
14946;DHT22;7567;50.916;6.900;2022-11-15T13:58:03;14.70;99.90
14946;DHT22;7567;50.916;6.900;2022-11-15T14:00:38;14.70;99.90
14946;DHT22;7567;50.916;6.900;2022-11-15T14:03:21;14.60;99.90
14946;DHT22;7567;50.916;6.900;2022-11-15T14:06:17;14.60;99.90
14946;DHT22;7567;50.916;6.900;2022-11-15T14:09:15;14.70;99.90
14946;DHT22;7567;50.916;6.900;2022-11-15T14:11:55;14.60;99.90
14946;DHT22;7567;50.916;6.900;2022-11-15T14:14:24;14.50;99.90
14946;DHT22;7567;50.916;6.900;2022-11-15T14:16:52;14.50;99.90
14946;DHT22;7567;50.916;6.900;2022-11-15T14:22:16;14.40;99.90
14946;DHT22;7567;50.916;6.900;2022-11-15T14:24:44;14.40;99.90
14946;DHT22;7567;50.916;6.900;2022-11-15T14:27:24;14.40;99.90
14946;DHT22;7567;50.916;6.900;2022-11-15T14:29:51;14.40;99.90
14946;DHT22;7567;50.916;6.900;2022-11-15T14:32:20;14.30;99.90
14946;DHT22;7567;50.916;6.900;2022-11-15T14:34:47;14.30;99.90
14946;DHT22;7567;50.916;6.900;2022-11-15T14:37:23;14.30;99.90
14946;DHT22;7567;50.916;6.900;2022-11-15T14:39:50;14.30;99.90
14946;DHT22;7567;50.916;6.900;2022-11-15T14:42:17;14.30;99.90
14946;DHT22;7567;50.916;6.900;2022-11-15T14:44:42;14.30;99.90
14946;DHT22;7567;50.916;6.900;2022-11-15T14:47:08;14.30;99.90
14946;DHT22;7567;50.916;6.900;2022-11-15T14:49:34;14.30;99.90
14946;DHT22;7567;50.916;6.900;2022-11-15T14:51:59;14.30;99.90
14946;DHT22;7567;50.916;6.900;2022-11-15T14:54:25;14.30;99.90
14946;DHT22;7567;50.916;6.900;2022-11-15T14:56:51;14.30;99.90
14946;DHT22;7567;50.916;6.900;2022-11-15T14:59:17;14.30;99.90
14946;DHT22;7567;50.916;6.900;2022-11-15T15:01:42;14.30;99.90
14946;DHT22;7567;50.916;6.900;2022-11-15T15:04:10;14.30;99.90
14946;DHT22;7567;50.916;6.900;2022-11-15T15:06:35;14.30;99.90
14946;DHT22;7567;50.916;6.900;2022-11-15T15:09:02;14.20;99.90
14946;DHT22;7567;50.916;6.900;2022-11-15T15:11:30;14.20;99.90
14946;DHT22;7567;50.916;6.900;2022-11-15T15:13:57;14.20;99.90
14946;DHT22;7567;50.916;6.900;2022-11-15T15:16:26;14.20;99.90
14946;DHT22;7567;50.916;6.900;2022-11-15T15:18:52;14.20;99.90
14946;DHT22;7567;50.916;6.900;2022-11-15T15:21:25;14.10;99.90
14946;DHT22;7567;50.916;6.900;2022-11-15T15:23:53;14.00;99.90
14946;DHT22;7567;50.916;6.900;2022-11-15T15:26:23;14.00;99.90
14946;DHT22;7567;50.916;6.900;2022-11-15T15:28:49;14.00;99.90
14946;DHT22;7567;50.916;6.900;2022-11-15T15:31:16;14.00;99.90
14946;DHT22;7567;50.916;6.900;2022-11-15T15:33:42;13.90;99.90
14946;DHT22;7567;50.916;6.900;2022-11-15T15:36:12;14.00;99.90
14946;DHT22;7567;50.916;6.900;2022-11-15T15:38:38;14.00;99.90
14946;DHT22;7567;50.916;6.900;2022-11-15T15:41:16;14.00;99.90
14946;DHT22;7567;50.916;6.900;2022-11-15T15:43:42;14.00;99.90
14946;DHT22;7567;50.916;6.900;2022-11-15T15:46:19;13.90;99.90
14946;DHT22;7567;50.916;6.900;2022-11-15T15:48:46;13.90;99.90
14946;DHT22;7567;50.916;6.900;2022-11-15T15:51:12;13.90;99.90
14946;DHT22;7567;50.916;6.900;2022-11-15T15:53:38;13.90;99.90
14946;DHT22;7567;50.916;6.900;2022-11-15T15:56:04;13.80;99.90
14946;DHT22;7567;50.916;6.900;2022-11-15T15:58:33;13.80;99.90
14946;DHT22;7567;50.916;6.900;2022-11-15T16:00:59;13.80;99.90
14946;DHT22;7567;50.916;6.900;2022-11-15T16:03:25;13.70;99.90
14946;DHT22;7567;50.916;6.900;2022-11-15T16:05:53;13.70;99.90
14946;DHT22;7567;50.916;6.900;2022-11-15T16:08:20;13.80;99.90
14946;DHT22;7567;50.916;6.900;2022-11-15T16:10:47;13.80;99.90
14946;DHT22;7567;50.916;6.900;2022-11-15T16:13:13;13.70;99.90
14946;DHT22;7567;50.916;6.900;2022-11-15T16:15:39;13.70;99.90
14946;DHT22;7567;50.916;6.900;2022-11-15T16:18:05;13.60;99.90
14946;DHT22;7567;50.916;6.900;2022-11-15T16:23:07;13.60;99.90
14946;DHT22;7567;50.916;6.900;2022-11-15T16:25:41;13.50;99.90
14946;DHT22;7567;50.916;6.900;2022-11-15T16:28:27;13.50;99.90
14946;DHT22;7567;50.916;6.900;2022-11-15T16:31:22;13.50;99.90
14946;DHT22;7567;50.916;6.900;2022-11-15T16:33:48;13.50;99.90
14946;DHT22;7567;50.916;6.900;2022-11-15T16:36:24;13.50;99.90
14946;DHT22;7567;50.916;6.900;2022-11-15T16:38:51;13.50;99.90
14946;DHT22;7567;50.916;6.900;2022-11-15T16:41:17;13.50;99.90
14946;DHT22;7567;50.916;6.900;2022-11-15T16:43:49;13.40;99.90
14946;DHT22;7567;50.916;6.900;2022-11-15T16:46:20;13.50;99.90
14946;DHT22;7567;50.916;6.900;2022-11-15T16:48:46;13.50;99.90
14946;DHT22;7567;50.916;6.900;2022-11-15T16:51:12;13.40;99.90
14946;DHT22;7567;50.916;6.900;2022-11-15T16:53:38;13.40;99.90
14946;DHT22;7567;50.916;6.900;2022-11-15T16:56:17;13.40;99.90
14946;DHT22;7567;50.916;6.900;2022-11-15T16:58:44;13.40;99.90
14946;DHT22;7567;50.916;6.900;2022-11-15T17:01:18;13.40;99.90
14946;DHT22;7567;50.916;6.900;2022-11-15T17:03:46;13.30;99.90
14946;DHT22;7567;50.916;6.900;2022-11-15T17:06:12;13.30;99.90
14946;DHT22;7567;50.916;6.900;2022-11-15T17:08:38;13.30;99.90
14946;DHT22;7567;50.916;6.900;2022-11-15T17:11:05;13.20;99.90
14946;DHT22;7567;50.916;6.900;2022-11-15T17:13:31;13.20;99.90
14946;DHT22;7567;50.916;6.900;2022-11-15T17:16:09;13.30;99.90
14946;DHT22;7567;50.916;6.900;2022-11-15T17:18:35;13.30;99.90
14946;DHT22;7567;50.916;6.900;2022-11-15T17:21:14;13.20;99.90
14946;DHT22;7567;50.916;6.900;2022-11-15T17:23:41;13.20;99.90
14946;DHT22;7567;50.916;6.900;2022-11-15T17:26:07;13.30;99.90
14946;DHT22;7567;50.916;6.900;2022-11-15T17:28:36;13.30;99.90
14946;DHT22;7567;50.916;6.900;2022-11-15T17:31:09;13.30;99.90
14946;DHT22;7567;50.916;6.900;2022-11-15T17:33:36;13.30;99.90
14946;DHT22;7567;50.916;6.900;2022-11-15T17:36:04;13.20;99.90
14946;DHT22;7567;50.916;6.900;2022-11-15T17:38:30;13.10;99.90
14946;DHT22;7567;50.916;6.900;2022-11-15T17:43:26;13.10;99.90
14946;DHT22;7567;50.916;6.900;2022-11-15T17:45:52;13.00;99.90
14946;DHT22;7567;50.916;6.900;2022-11-15T17:48:18;12.90;99.90
14946;DHT22;7567;50.916;6.900;2022-11-15T17:51:00;12.90;99.90
14946;DHT22;7567;50.916;6.900;2022-11-15T17:53:27;12.90;99.90
14946;DHT22;7567;50.916;6.900;2022-11-15T17:56:03;12.80;99.90
14946;DHT22;7567;50.916;6.900;2022-11-15T17:58:30;12.90;99.90
14946;DHT22;7567;50.916;6.900;2022-11-15T18:01:08;12.80;99.90
14946;DHT22;7567;50.916;6.900;2022-11-15T18:03:35;12.80;99.90